Dades meteomassalio
Diari Summary for Juliol 3, 2017 Units:  English    Metric   Both
« Previous Day
Next Day »
Diari Semanal Mensual Anual Personalitzat
  Maxima: Minima: Mijana:
Temperatura: TemperatureC °F 16.2 °F 24 °F
Rosada: DewpointC °F 9.3 °F 12.4 °F
Humitat: Humidity % 30 % 50 %
Velocitat del vent: WindSpeedKMH mph 0.0 mph 8.3 mph
Racha vent: WindSpeedGustKMH mph - -
Vent:- - SSW
Pressio: PressurehPa in 1017.2 in -
Pluja: 0.0 in    
Historical Graphs
 
 
Tabular Data for Juliol 3, 2017
Time Temperature Dew Point Pressure Wind Wind Speed Wind Gust Humidity Rainfall Rate (Hourly) solar Conditions
TemperatureC °F DewpointC °F PressurehPa in Calm     Humidity % HourlyPrecipMM in SolarRadiationWatts/m^2 W/m2 Conditions
00:03 21.5 °F 9.4 °F 1022.6 in Calm     46 % 0.0 in 0.0 W/m2 CLR
00:08 21.1 °F 9.3 °F 1022.6 in SW 1.6 mph 1.6 mph 47 % 0.0 in 0.0 W/m2 CLR
00:13 20.8 °F 9.4 °F 1022.6 in Calm     48 % 0.0 in 0.0 W/m2 CLR
00:18 20.6 °F 9.4 °F 1022.6 in WSW 3.7 mph 3.7 mph 49 % 0.0 in 0.0 W/m2 CLR
00:23 20.5 °F 9.4 °F 1022.6 in WSW 6.4 mph 6.4 mph 49 % 0.0 in 0.0 W/m2 CLR
00:28 20.6 °F 10.1 °F 1022.6 in West 7.4 mph 7.4 mph 51 % 0.0 in 0.0 W/m2 CLR
00:33 20.7 °F 10.2 °F 1022.6 in West 1.9 mph   51 % 0.0 in 0.0 W/m2 CLR
00:38 20.8 °F 10.3 °F 1022.6 in West 5.6 mph 5.6 mph 51 % 0.0 in 0.0 W/m2 CLR
00:43 20.9 °F 10.4 °F 1022.6 in West 5.6 mph 5.6 mph 51 % 0.0 in 0.0 W/m2 CLR
00:48 20.9 °F 10.7 °F 1022.6 in WSW 9.7 mph 9.7 mph 52 % 0.0 in 0.0 W/m2 CLR
00:53 20.9 °F 10.7 °F 1022.6 in West 9.3 mph 9.3 mph 52 % 0.0 in 0.0 W/m2 CLR
00:58 20.8 °F 10.6 °F 1022.9 in WSW 11.3 mph 11.3 mph 52 % 0.0 in 0.0 W/m2 CLR
01:03 20.8 °F 10.8 °F 1022.9 in WSW 5.6 mph 5.6 mph 53 % 0.0 in 0.0 W/m2 CLR
01:08 20.7 °F 10.8 °F 1022.9 in WSW 5.6 mph 5.6 mph 53 % 0.0 in 0.0 W/m2 CLR
01:13 20.7 °F 10.7 °F 1022.9 in West 7.4 mph 7.4 mph 53 % 0.0 in 0.0 W/m2 CLR
01:18 20.6 °F 11.0 °F 1022.9 in NW 20.4 mph 20.4 mph 54 % 0.0 in 0.0 W/m2 CLR
01:23 20.5 °F 10.9 °F 1022.9 in WNW 20.4 mph 20.4 mph 54 % 0.0 in 0.0 W/m2 CLR
01:28 20.5 °F 10.9 °F 1022.9 in West 11.1 mph 11.1 mph 54 % 0.0 in 0.0 W/m2 CLR
01:33 20.4 °F 10.8 °F 1022.9 in West 13.0 mph 13.0 mph 54 % 0.0 in 0.0 W/m2 CLR
01:38 20.4 °F 11.1 °F 1022.9 in WSW 16.7 mph 16.7 mph 55 % 0.0 in 0.0 W/m2 CLR
01:43 20.3 °F 11.0 °F 1022.9 in West 16.7 mph 16.7 mph 55 % 0.0 in 0.0 W/m2 CLR
01:48 20.3 °F 10.9 °F 1022.9 in WNW 16.1 mph 16.1 mph 55 % 0.0 in 0.0 W/m2 CLR
01:53 20.2 °F 10.8 °F 1022.9 in WNW 17.7 mph 17.7 mph 55 % 0.0 in 0.0 W/m2 CLR
01:58 20.1 °F 11.1 °F 1022.9 in West 20.4 mph 20.4 mph 56 % 0.0 in 0.0 W/m2 CLR
02:03 20.1 °F 11.1 °F 1022.9 in WNW 13.0 mph 13.0 mph 56 % 0.0 in 0.0 W/m2 CLR
02:08 20.0 °F 10.9 °F 1022.9 in WNW 9.3 mph 13.7 mph 56 % 0.0 in 0.0 W/m2 CLR
02:13 19.9 °F 10.9 °F 1022.9 in WSW 11.3 mph 11.3 mph 56 % 0.0 in 0.0 W/m2 CLR
02:18 19.9 °F 10.8 °F 1022.9 in West 19.3 mph 19.3 mph 56 % 0.0 in 0.0 W/m2 CLR
02:23 19.8 °F 11.1 °F 1022.9 in West 7.4 mph 7.4 mph 57 % 0.0 in 0.0 W/m2 CLR
02:28 19.8 °F 11.0 °F 1022.9 in West 19.3 mph 19.3 mph 57 % 0.0 in 0.0 W/m2 CLR
02:33 19.7 °F 10.9 °F 1022.9 in West 13.0 mph 13.0 mph 57 % 0.0 in 0.0 W/m2 CLR
02:38 19.7 °F 10.9 °F 1022.9 in West 5.6 mph 5.6 mph 57 % 0.0 in 0.0 W/m2 CLR
02:43 19.6 °F 11.1 °F 1022.9 in WSW 9.3 mph 9.3 mph 58 % 0.0 in 0.0 W/m2 CLR
02:48 19.5 °F 11.0 °F 1022.9 in WSW 14.8 mph 14.8 mph 58 % 0.0 in 0.0 W/m2 CLR
02:53 19.4 °F 10.9 °F 1022.9 in West 9.3 mph 9.3 mph 58 % 0.0 in 0.0 W/m2 CLR
02:58 19.4 °F 11.2 °F 1022.9 in West 13.0 mph 13.0 mph 59 % 0.0 in 0.0 W/m2 CLR
03:03 19.3 °F 11.1 °F 1022.9 in West 11.1 mph 11.1 mph 59 % 0.0 in 0.0 W/m2 CLR
03:08 19.3 °F 11.1 °F 1022.9 in West 13.0 mph 13.0 mph 59 % 0.0 in 0.0 W/m2 CLR
03:13 19.2 °F 11.0 °F 1022.9 in West 9.3 mph 9.3 mph 59 % 0.0 in 0.0 W/m2 CLR
03:19 19.2 °F 10.9 °F 1022.9 in West 3.7 mph 3.7 mph 59 % 0.0 in 0.0 W/m2 CLR
03:24 19.1 °F 11.2 °F 1022.9 in WNW 9.3 mph 9.3 mph 60 % 0.0 in 0.0 W/m2 CLR
03:29 19.2 °F 11.2 °F 1022.9 in WNW 18.5 mph 18.5 mph 60 % 0.0 in 0.0 W/m2 CLR
03:34 19.2 °F 11.3 °F 1022.9 in West 9.7 mph 9.7 mph 60 % 0.0 in 0.0 W/m2 CLR
03:39 19.1 °F 11.2 °F 1022.9 in West 9.3 mph 9.3 mph 60 % 0.0 in 0.0 W/m2 CLR
03:44 19.1 °F 11.2 °F 1022.9 in West 13.0 mph 13.0 mph 60 % 0.0 in 0.0 W/m2 CLR
03:49 19.1 °F 11.3 °F 1022.9 in West 9.7 mph 9.7 mph 61 % 0.0 in 0.0 W/m2 CLR
03:54 19.1 °F 11.3 °F 1022.9 in WSW 13.0 mph 13.0 mph 61 % 0.0 in 0.0 W/m2 CLR
03:59 18.9 °F 11.3 °F 1022.9 in WSW 11.3 mph 11.3 mph 61 % 0.0 in 0.0 W/m2 CLR
04:04 18.9 °F 11.4 °F 1022.9 in West 20.4 mph 20.4 mph 62 % 0.0 in 0.0 W/m2 CLR
04:09 18.8 °F 11.3 °F 1022.9 in West 18.5 mph 18.5 mph 62 % 0.0 in 0.0 W/m2 CLR
04:14 18.7 °F 11.2 °F 1022.9 in WNW 9.3 mph 9.3 mph 62 % 0.0 in 0.0 W/m2 CLR
04:19 18.6 °F 11.4 °F 1022.9 in WNW 14.8 mph 14.8 mph 63 % 0.0 in 0.0 W/m2 CLR
04:24 18.4 °F 11.2 °F 1022.9 in Calm     63 % 0.0 in 0.0 W/m2 CLR
04:29 18.3 °F 11.2 °F 1022.6 in WNW 5.6 mph 5.6 mph 63 % 0.0 in 0.0 W/m2 CLR
04:34 18.2 °F 11.3 °F 1022.6 in WNW 5.6 mph 5.6 mph 64 % 0.0 in 0.0 W/m2 CLR
04:39 18.2 °F 11.3 °F 1022.6 in West 6.4 mph 6.4 mph 64 % 0.0 in 0.0 W/m2 CLR
04:44 18.2 °F 11.3 °F 1022.9 in West 5.6 mph 5.6 mph 64 % 0.0 in 0.0 W/m2 CLR
04:49 18.2 °F 11.3 °F 1022.9 in West 7.4 mph 7.4 mph 64 % 0.0 in 0.0 W/m2 CLR
04:54 18.2 °F 11.3 °F 1022.9 in West 5.6 mph 5.6 mph 64 % 0.0 in 0.0 W/m2 CLR
04:59 18.2 °F 11.3 °F 1022.9 in Calm     64 % 0.0 in 0.0 W/m2 CLR
05:04 18.2 °F 11.3 °F 1022.9 in West 9.7 mph 9.7 mph 64 % 0.0 in 0.0 W/m2 CLR
05:09 18.2 °F 11.3 °F 1022.9 in West 13.0 mph 13.0 mph 64 % 0.0 in 0.0 W/m2 CLR
05:14 18.3 °F 11.3 °F 1022.6 in WSW 7.4 mph 7.4 mph 64 % 0.0 in 0.0 W/m2 CLR
05:19 18.2 °F 11.3 °F 1022.6 in West 7.4 mph 7.4 mph 64 % 0.0 in 0.0 W/m2 CLR
05:24 18.2 °F 11.2 °F 1022.6 in West 14.8 mph 14.8 mph 64 % 0.0 in 0.0 W/m2 CLR
05:29 18.1 °F 11.2 °F 1022.6 in SW 7.4 mph 7.4 mph 64 % 0.0 in 0.0 W/m2 CLR
05:34 18.1 °F 11.1 °F 1022.9 in Calm     64 % 0.0 in 0.0 W/m2 CLR
05:39 17.8 °F 11.2 °F 1022.6 in Calm     65 % 0.0 in 0.0 W/m2 CLR
05:44 17.7 °F 11.2 °F 1022.9 in Calm     66 % 0.0 in 0.0 W/m2 CLR
05:49 17.4 °F 11.0 °F 1022.9 in Calm     66 % 0.0 in 0.0 W/m2 CLR
05:54 17.3 °F 10.9 °F 1022.6 in Calm     66 % 0.0 in 0.0 W/m2 CLR
05:59 17.1 °F 10.9 °F 1022.9 in Calm     67 % 0.0 in 0.0 W/m2 CLR
06:04 17.1 °F 10.9 °F 1022.9 in Calm     67 % 0.0 in 0.0 W/m2 CLR
06:09 17.0 °F 11.1 °F 1022.9 in West 4.8 mph 4.8 mph 68 % 0.0 in 0.0 W/m2 CLR
06:14 17.1 °F 11.2 °F 1022.9 in Calm   0.2 mph 68 % 0.0 in 0.0 W/m2 CLR
06:19 17.1 °F 11.2 °F 1022.9 in Calm     68 % 0.0 in 0.0 W/m2 CLR
06:24 17.1 °F 11.2 °F 1022.9 in Calm     68 % 0.0 in 0.0 W/m2 OVC
06:29 17.0 °F 11.1 °F 1022.9 in Calm     68 % 0.0 in 0.0 W/m2 OVC
06:34 16.8 °F 10.8 °F 1023.2 in Calm     68 % 0.0 in 5.0 W/m2 OVC
06:39 16.6 °F 10.9 °F 1023.2 in Calm     69 % 0.0 in 7.0 W/m2 BKN
06:44 16.4 °F 10.9 °F 1023.2 in Calm     70 % 0.0 in 9.0 W/m2 BKN
06:49 16.3 °F 10.8 °F 1023.2 in Calm     70 % 0.0 in 11.0 W/m2 BKN
06:54 16.2 °F 10.7 °F 1023.2 in Calm     70 % 0.0 in 12.0 W/m2 BKN
06:59 16.2 °F 10.9 °F 1023.2 in Calm     71 % 0.0 in 14.0 W/m2 BKN
07:04 16.3 °F 11.0 °F 1023.2 in Calm     71 % 0.0 in 18.0 W/m2 BKN
07:09 16.4 °F 11.1 °F 1023.2 in Calm     71 % 0.0 in 23.0 W/m2 BKN
07:14 16.5 °F 11.0 °F 1023.2 in West 5.6 mph 5.6 mph 70 % 0.0 in 37.0 W/m2 BKN
07:19 16.7 °F 11.2 °F 1023.2 in Calm     70 % 0.0 in 47.0 W/m2 SCT
07:24 16.9 °F 11.2 °F 1023.2 in West 5.6 mph 5.6 mph 69 % 0.0 in 58.0 W/m2 SCT
07:29 17.2 °F 11.4 °F 1023.6 in West 7.4 mph 7.4 mph 69 % 0.0 in 69.0 W/m2 FEW
07:34 17.3 °F 11.4 °F 1023.6 in WSW 9.3 mph 9.3 mph 68 % 0.0 in 84.0 W/m2 FEW
07:39 17.6 °F 11.3 °F 1023.6 in SW 7.4 mph 7.4 mph 67 % 0.0 in 98.0 W/m2 FEW
07:44 17.7 °F 11.4 °F 1023.6 in Calm     67 % 0.0 in 114.0 W/m2 CLR
07:49 17.8 °F 11.6 °F 1023.6 in SW 9.3 mph 9.3 mph 67 % 0.0 in 128.0 W/m2 CLR
07:54 17.9 °F 11.7 °F 1023.6 in SSW 5.6 mph 5.6 mph 67 % 0.0 in 144.0 W/m2 CLR
07:59 18.1 °F 11.6 °F 1023.6 in WNW 7.4 mph 7.4 mph 66 % 0.0 in 165.0 W/m2 CLR
08:04 18.2 °F 11.7 °F 1023.6 in WNW 18.5 mph 18.5 mph 66 % 0.0 in 181.0 W/m2 CLR
08:09 18.3 °F 11.6 °F 1023.6 in West 14.5 mph 14.5 mph 65 % 0.0 in 197.0 W/m2 CLR
08:14 18.4 °F 11.7 °F 1023.6 in WNW 3.7 mph 3.7 mph 65 % 0.0 in 213.0 W/m2 CLR
08:19 18.6 °F 11.7 °F 1023.6 in West 3.7 mph 4.8 mph 64 % 0.0 in 229.0 W/m2 CLR
08:24 18.7 °F 11.7 °F 1023.6 in West 9.3 mph 9.3 mph 64 % 0.0 in 246.0 W/m2 CLR
08:29 18.7 °F 11.8 °F 1023.6 in WSW 11.3 mph 11.3 mph 64 % 0.0 in 262.0 W/m2 CLR
08:34 18.8 °F 11.9 °F 1023.6 in West 9.3 mph 9.3 mph 64 % 0.0 in 276.0 W/m2 CLR
08:39 18.9 °F 11.7 °F 1023.6 in West 18.5 mph 18.5 mph 63 % 0.0 in 294.0 W/m2 CLR
08:44 19.1 °F 11.8 °F 1023.6 in NW 22.2 mph 22.2 mph 63 % 0.0 in 308.0 W/m2 CLR
08:49 19.2 °F 11.7 °F 1023.6 in West 24.1 mph 24.1 mph 62 % 0.0 in 322.0 W/m2 CLR
08:54 19.2 °F 11.8 °F 1023.6 in WNW 18.5 mph 18.5 mph 62 % 0.0 in 338.0 W/m2 CLR
08:59 19.4 °F 11.7 °F 1023.6 in WNW 18.5 mph 18.5 mph 61 % 0.0 in 355.0 W/m2 CLR
09:04 19.5 °F 11.8 °F 1023.6 in WNW 12.9 mph 12.9 mph 61 % 0.0 in 369.0 W/m2 CLR
09:09 19.7 °F 11.9 °F 1023.6 in West 11.3 mph 11.3 mph 61 % 0.0 in 385.0 W/m2 CLR
09:14 19.7 °F 12.0 °F 1023.6 in WNW 5.6 mph 5.6 mph 61 % 0.0 in 399.0 W/m2 CLR
09:19 20.1 °F 12.1 °F 1023.6 in West 7.4 mph 7.4 mph 60 % 0.0 in 413.0 W/m2 CLR
09:24 20.3 °F 12.1 °F 1023.6 in NNW 11.1 mph 11.4 mph 59 % 0.0 in 431.0 W/m2 CLR
09:30 20.6 °F 12.3 °F 1023.6 in NW 20.4 mph 20.4 mph 59 % 0.0 in 446.0 W/m2 CLR
09:35 20.8 °F 12.2 °F 1023.6 in NW 18.5 mph 18.5 mph 58 % 0.0 in 461.0 W/m2 CLR
09:40 21.1 °F 12.2 °F 1023.6 in NW 16.1 mph 16.1 mph 57 % 0.0 in 475.0 W/m2 CLR
09:45 21.0 °F 12.2 °F 1023.6 in NW 25.9 mph 25.9 mph 57 % 0.0 in 492.0 W/m2 CLR
09:50 21.1 °F 12.3 °F 1023.2 in NW 24.1 mph 24.1 mph 57 % 0.0 in 506.0 W/m2 CLR
09:55 21.2 °F 12.1 °F 1023.2 in WNW 25.9 mph 25.9 mph 56 % 0.0 in 520.0 W/m2 CLR
10:00 21.4 °F 12.2 °F 1023.2 in NW 17.7 mph 17.7 mph 56 % 0.0 in 534.0 W/m2 CLR
10:05 21.6 °F 12.4 °F 1023.2 in WNW 9.3 mph 9.3 mph 56 % 0.0 in 548.0 W/m2 CLR
10:10 21.8 °F 12.4 °F 1023.2 in NW 18.5 mph 18.5 mph 55 % 0.0 in 564.0 W/m2 CLR
10:12 22.0 °F 12.6 °F 1023.2 in NW 16.7 mph 16.7 mph 55 % 0.0 in 573.0 W/m2 CLR
10:17 21.9 °F 12.2 °F 1023.2 in NW 18.5 mph 18.5 mph 54 % 0.0 in 587.0 W/m2 CLR
10:22 22.1 °F 12.4 °F 1023.2 in WNW 16.7 mph 16.7 mph 54 % 0.0 in 601.0 W/m2 CLR
10:28 22.3 °F 12.5 °F 1022.9 in NNW 7.4 mph 7.4 mph 54 % 0.0 in 613.0 W/m2 CLR
10:33 22.6 °F 12.5 °F 1022.9 in NW 3.7 mph 3.7 mph 53 % 0.0 in 629.0 W/m2 CLR
10:38 22.7 °F 12.6 °F 1022.9 in WNW 5.6 mph 5.6 mph 53 % 0.0 in 643.0 W/m2 CLR
10:43 22.7 °F 12.3 °F 1022.9 in NNW 18.5 mph 18.5 mph 52 % 0.0 in 656.0 W/m2 CLR
10:48 22.7 °F 12.3 °F 1022.9 in NW 18.5 mph 18.5 mph 52 % 0.0 in 668.0 W/m2 CLR
10:53 22.8 °F 12.4 °F 1022.6 in West 16.7 mph 16.7 mph 52 % 0.0 in 682.0 W/m2 CLR
10:58 23.2 °F 12.4 °F 1022.9 in West 18.5 mph 18.5 mph 51 % 0.0 in 694.0 W/m2 CLR
11:03 23.2 °F 12.8 °F 1022.6 in NW 20.4 mph 20.4 mph 52 % 0.0 in 707.0 W/m2 CLR
11:08 23.5 °F 12.5 °F 1022.6 in NW 14.8 mph 14.8 mph 50 % 0.0 in 717.0 W/m2 CLR
11:13 23.7 °F 12.6 °F 1022.6 in NNW 18.5 mph 18.5 mph 50 % 0.0 in 728.0 W/m2 CLR
11:18 23.6 °F 12.6 °F 1022.6 in North 5.6 mph 5.6 mph 50 % 0.0 in 740.0 W/m2 CLR
11:23 23.9 °F 12.8 °F 1022.6 in West 7.4 mph 7.4 mph 50 % 0.0 in 751.0 W/m2 CLR
11:28 24.1 °F 12.7 °F 1022.6 in WNW 18.5 mph 18.5 mph 49 % 0.0 in 763.0 W/m2 CLR
11:33 24.0 °F 12.6 °F 1022.6 in NW 18.5 mph 18.5 mph 49 % 0.0 in 772.0 W/m2 CLR
11:38 24.1 °F 12.7 °F 1022.2 in WNW 7.4 mph 7.4 mph 49 % 0.0 in 786.0 W/m2 CLR
11:43 24.0 °F 12.6 °F 1022.2 in NW 18.5 mph 18.5 mph 49 % 0.0 in 796.0 W/m2 CLR
11:48 23.9 °F 12.6 °F 1022.2 in WSW 7.4 mph 7.4 mph 49 % 0.0 in 803.0 W/m2 CLR
11:53 24.3 °F 12.6 °F 1022.2 in WNW 20.4 mph 20.4 mph 48 % 0.0 in 812.0 W/m2 CLR
11:58 24.6 °F 12.8 °F 1022.2 in NNW 18.5 mph 18.5 mph 48 % 0.0 in 824.0 W/m2 CLR
12:03 24.7 °F 12.6 °F 1022.2 in West 12.9 mph 12.9 mph 47 % 0.0 in 831.0 W/m2 CLR
12:08 24.7 °F 12.9 °F 1022.2 in NNW 18.5 mph 18.5 mph 48 % 0.0 in 838.0 W/m2 CLR
12:13 25.3 °F 12.5 °F 1021.9 in WNW 20.4 mph 20.4 mph 45 % 0.0 in 849.0 W/m2 CLR
12:18 25.0 °F 12.6 °F 1021.9 in West 14.8 mph 14.8 mph 46 % 0.0 in 856.0 W/m2 CLR
12:23 24.9 °F 12.8 °F 1021.9 in NNW 14.8 mph 14.8 mph 47 % 0.0 in 865.0 W/m2 CLR
12:28 25.2 °F 12.8 °F 1021.9 in North 5.6 mph 5.6 mph 46 % 0.0 in 872.0 W/m2 CLR
12:33 25.6 °F 12.8 °F 1021.9 in Calm     45 % 0.0 in 881.0 W/m2 CLR
12:38 26.0 °F 12.8 °F 1021.9 in NE 5.6 mph 5.6 mph 44 % 0.0 in 886.0 W/m2 CLR
12:43 26.0 °F 12.8 °F 1021.9 in WSW 7.4 mph 7.4 mph 44 % 0.0 in 895.0 W/m2 CLR
12:48 26.2 °F 12.6 °F 1021.9 in NW 7.4 mph 7.4 mph 43 % 0.0 in 895.0 W/m2 CLR
12:53 26.3 °F 12.8 °F 1021.6 in NW 18.5 mph 18.5 mph 43 % 0.0 in 904.0 W/m2 CLR
12:58 26.3 °F 12.7 °F 1021.6 in North 13.0 mph 13.0 mph 43 % 0.0 in 911.0 W/m2 CLR
13:03 26.3 °F 12.8 °F 1021.6 in WSW 3.7 mph 3.7 mph 43 % 0.0 in 914.0 W/m2 CLR
13:08 26.5 °F 12.6 °F 1021.6 in NE 3.7 mph 3.7 mph 42 % 0.0 in 919.0 W/m2 CLR
13:13 26.8 °F 12.8 °F 1021.6 in WNW 7.4 mph 7.4 mph 42 % 0.0 in 925.0 W/m2 CLR
13:18 27.1 °F 12.7 °F 1021.6 in NW 7.4 mph   41 % 0.0 in 928.0 W/m2 CLR
13:23 27.4 °F 12.9 °F 1021.6 in NNW 16.7 mph 16.7 mph 41 % 0.0 in 930.0 W/m2 CLR
13:28 27.4 °F 12.6 °F 1021.6 in NNW 16.7 mph 16.7 mph 40 % 0.0 in 935.0 W/m2 CLR
13:33 27.2 °F 12.4 °F 1021.2 in Calm     40 % 0.0 in 937.0 W/m2 CLR
13:38 27.3 °F 12.6 °F 1021.2 in Calm     40 % 0.0 in 940.0 W/m2 CLR
13:43 27.6 °F 12.7 °F 1021.2 in North 7.4 mph 7.4 mph 40 % 0.0 in 946.0 W/m2 CLR
13:48 27.8 °F 12.6 °F 1021.2 in ENE 8.0 mph 8.0 mph 39 % 0.0 in 944.0 W/m2 CLR
13:53 27.8 °F 12.6 °F 1020.9 in Calm     39 % 0.0 in 947.0 W/m2 CLR
13:58 27.9 °F 12.7 °F 1020.9 in NNE 18.5 mph 18.5 mph 39 % 0.0 in 944.0 W/m2 CLR
14:03 28.1 °F 12.8 °F 1020.9 in NNE 3.7 mph   39 % 0.0 in 946.0 W/m2 CLR
14:08 28.2 °F 12.5 °F 1020.9 in North 9.3 mph 9.3 mph 38 % 0.0 in 947.0 W/m2 CLR
14:13 28.2 °F 12.9 °F 1020.5 in Calm     39 % 0.0 in 947.0 W/m2 CLR
14:18 28.7 °F 12.9 °F 1020.5 in Calm     38 % 0.0 in 944.0 W/m2 CLR
14:23 28.7 °F 12.6 °F 1020.5 in NNW 13.0 mph 13.0 mph 37 % 0.0 in 946.0 W/m2 CLR
14:28 28.4 °F 12.8 °F 1020.5 in North 4.8 mph 4.8 mph 38 % 0.0 in 942.0 W/m2 CLR
14:33 28.4 °F 12.3 °F 1020.5 in North 5.6 mph 5.6 mph 37 % 0.0 in 940.0 W/m2 CLR
14:38 28.4 °F 12.3 °F 1020.2 in Calm     37 % 0.0 in 937.0 W/m2 CLR
14:43 28.9 °F 12.7 °F 1020.2 in East 1.9 mph   37 % 0.0 in 935.0 W/m2 CLR
14:48 29.3 °F 12.7 °F 1020.2 in NE 5.6 mph   36 % 0.0 in 935.0 W/m2 CLR
14:53 29.4 °F 12.4 °F 1020.2 in Calm     35 % 0.0 in 928.0 W/m2 CLR
14:58 29.2 °F 12.2 °F 1020.2 in Calm     35 % 0.0 in 925.0 W/m2 CLR
15:03 29.6 °F 12.9 °F 1019.9 in NNE 7.4 mph 7.4 mph 36 % 0.0 in 925.0 W/m2 CLR
15:08 29.8 °F 12.7 °F 1019.9 in Calm     35 % 0.0 in 918.0 W/m2 CLR
15:13 30.1 °F 12.9 °F 1019.9 in NNE 9.3 mph 9.3 mph 35 % 0.0 in 911.0 W/m2 CLR
15:18 30.0 °F 12.4 °F 1019.9 in ENE 9.3 mph 9.3 mph 34 % 0.0 in 905.0 W/m2 CLR
15:23 29.8 °F 12.2 °F 1019.5 in NNE 5.6 mph 5.6 mph 34 % 0.0 in 900.0 W/m2 CLR
15:28 29.8 °F 12.2 °F 1019.5 in Calm     34 % 0.0 in 893.0 W/m2 CLR
15:33 29.9 °F 12.3 °F 1019.5 in East 4.8 mph 4.8 mph 34 % 0.0 in 888.0 W/m2 CLR
15:38 30.0 °F 12.4 °F 1019.5 in NE 7.4 mph 7.4 mph 34 % 0.0 in 881.0 W/m2 CLR
15:43 30.2 °F 12.6 °F 1019.2 in ENE 13.0 mph 13.0 mph 34 % 0.0 in 874.0 W/m2 CLR
15:48 30.4 °F 12.8 °F 1019.2 in Calm     34 % 0.0 in 865.0 W/m2 CLR
15:53 30.5 °F 12.9 °F 1019.2 in NE 6.4 mph 6.4 mph 34 % 0.0 in 858.0 W/m2 CLR
15:58 30.6 °F 12.9 °F 1019.2 in ENE 8.0 mph 8.0 mph 34 % 0.0 in 851.0 W/m2 CLR
16:03 30.6 °F 12.4 °F 1019.2 in ENE 6.4 mph 6.4 mph 33 % 0.0 in 842.0 W/m2 CLR
16:08 30.6 °F 12.5 °F 1019.2 in ENE 5.6 mph 5.6 mph 33 % 0.0 in 831.0 W/m2 CLR
16:13 30.5 °F 12.9 °F 1018.8 in East 3.7 mph 4.0 mph 34 % 0.0 in 823.0 W/m2 CLR
16:18 30.3 °F 12.7 °F 1018.8 in Calm     34 % 0.0 in 800.0 W/m2 CLR
16:23 30.7 °F 13.1 °F 1018.8 in NE 16.7 mph 16.7 mph 34 % 0.0 in 803.0 W/m2 CLR
16:28 30.8 °F 12.7 °F 1018.8 in NE 13.0 mph 13.0 mph 33 % 0.0 in 793.0 W/m2 CLR
16:33 30.6 °F 12.9 °F 1018.8 in ENE 9.3 mph 9.3 mph 34 % 0.0 in 786.0 W/m2 CLR
16:38 30.5 °F 12.9 °F 1018.8 in NE 5.6 mph 5.6 mph 34 % 0.0 in 773.0 W/m2 CLR
16:43 30.6 °F 12.9 °F 1018.8 in ENE 16.7 mph 16.7 mph 34 % 0.0 in 761.0 W/m2 CLR
16:48 30.7 °F 12.6 °F 1018.8 in ENE 5.6 mph 5.6 mph 33 % 0.0 in 749.0 W/m2 CLR
16:53 30.8 °F 12.7 °F 1018.5 in ENE 5.6 mph 5.6 mph 33 % 0.0 in 740.0 W/m2 CLR
16:58 31.0 °F 12.8 °F 1018.5 in Calm     33 % 0.0 in 726.0 W/m2 CLR
17:03 31.3 °F 12.6 °F 1018.5 in ENE 5.6 mph 5.6 mph 32 % 0.0 in 714.0 W/m2 CLR
17:08 31.3 °F 12.7 °F 1018.5 in East 9.3 mph 9.3 mph 32 % 0.0 in 705.0 W/m2 CLR
17:13 31.3 °F 12.7 °F 1018.5 in NNE 7.4 mph   32 % 0.0 in 693.0 W/m2 CLR
17:18 31.4 °F 12.8 °F 1018.5 in ENE 1.9 mph   32 % 0.0 in 680.0 W/m2 CLR
17:23 31.4 °F 12.8 °F 1018.5 in Calm     32 % 0.0 in 666.0 W/m2 CLR
17:28 31.1 °F 12.4 °F 1018.2 in NE 16.7 mph 16.7 mph 32 % 0.0 in 652.0 W/m2 CLR
17:34 31.2 °F 12.6 °F 1018.2 in Calm     32 % 0.0 in 638.0 W/m2 CLR
17:39 31.3 °F 12.6 °F 1018.2 in ENE 7.4 mph 7.4 mph 32 % 0.0 in 628.0 W/m2 CLR
17:44 31.1 °F 12.4 °F 1018.2 in ENE 5.6 mph 5.6 mph 32 % 0.0 in 610.0 W/m2 CLR
17:49 31.3 °F 12.7 °F 1017.8 in ENE 5.6 mph 5.6 mph 32 % 0.0 in 598.0 W/m2 CLR
17:54 31.3 °F 12.7 °F 1017.8 in NE 7.4 mph   32 % 0.0 in 585.0 W/m2 CLR
17:59 31.5 °F 12.3 °F 1017.8 in NE 11.1 mph 11.1 mph 31 % 0.0 in 568.0 W/m2 CLR
18:04 31.6 °F 12.4 °F 1017.8 in NE 3.7 mph 3.7 mph 31 % 0.0 in 555.0 W/m2 CLR
18:09 31.8 °F 12.6 °F 1017.8 in Calm     31 % 0.0 in 541.0 W/m2 CLR
18:14 31.9 °F 12.7 °F 1017.8 in Calm     31 % 0.0 in 526.0 W/m2 CLR
18:19 31.9 °F 12.7 °F 1017.5 in NE 8.0 mph 8.0 mph 31 % 0.0 in 510.0 W/m2 CLR
18:24 31.9 °F 12.7 °F 1017.5 in ENE 4.8 mph 4.8 mph 31 % 0.0 in 496.0 W/m2 CLR
18:29 31.6 °F 12.4 °F 1017.5 in Calm     31 % 0.0 in 482.0 W/m2 CLR
18:34 31.6 °F 12.4 °F 1017.5 in NE 13.0 mph 13.0 mph 31 % 0.0 in 469.0 W/m2 CLR
18:39 31.6 °F 12.4 °F 1017.5 in NE 3.7 mph   31 % 0.0 in 450.0 W/m2 CLR
18:44 31.6 °F 12.4 °F 1017.5 in NNE 14.5 mph 14.5 mph 31 % 0.0 in 434.0 W/m2 CLR
18:49 31.6 °F 12.4 °F 1017.5 in NE 3.7 mph   31 % 0.0 in 422.0 W/m2 CLR
18:54 31.6 °F 12.4 °F 1017.5 in Calm     31 % 0.0 in 406.0 W/m2 CLR
18:59 31.7 °F 12.5 °F 1017.5 in NE 13.0 mph 13.0 mph 31 % 0.0 in 390.0 W/m2 CLR
19:04 31.7 °F 12.0 °F 1017.5 in NNE 9.7 mph 9.7 mph 30 % 0.0 in 374.0 W/m2 CLR
19:09 31.6 °F 11.9 °F 1017.5 in ENE 6.4 mph 6.4 mph 30 % 0.0 in 359.0 W/m2 CLR
19:14 31.7 °F 11.9 °F 1017.5 in NE 5.6 mph 5.6 mph 30 % 0.0 in 345.0 W/m2 CLR
19:19 31.7 °F 11.9 °F 1017.5 in Calm   0.3 mph 30 % 0.0 in 329.0 W/m2 CLR
19:24 31.3 °F 11.7 °F 1017.5 in SE 4.8 mph   30 % 0.0 in 311.0 W/m2 CLR
19:29 31.1 °F 11.5 °F 1017.5 in Calm     30 % 0.0 in 297.0 W/m2 CLR
19:34 31.1 °F 12.4 °F 1017.5 in East 5.6 mph 5.6 mph 32 % 0.0 in 281.0 W/m2 CLR
19:39 30.9 °F 14.1 °F 1017.5 in ESE 7.4 mph 7.4 mph 36 % 0.0 in 267.0 W/m2 CLR
19:44 30.6 °F 13.8 °F 1017.5 in SE 5.6 mph 5.6 mph 36 % 0.0 in 250.0 W/m2 CLR
19:49 30.5 °F 13.7 °F 1017.5 in ESE 5.6 mph   36 % 0.0 in 234.0 W/m2 CLR
19:54 30.4 °F 14.1 °F 1017.2 in SSE 14.5 mph 14.5 mph 37 % 0.0 in 218.0 W/m2 CLR
19:59 30.1 °F 14.6 °F 1017.5 in ESE 16.7 mph 16.7 mph 39 % 0.0 in 202.0 W/m2 CLR
20:04 29.9 °F 14.8 °F 1017.5 in SE 11.1 mph 11.1 mph 40 % 0.0 in 185.0 W/m2 CLR
20:09 29.7 °F 15.1 °F 1017.5 in SE 18.5 mph 18.5 mph 41 % 0.0 in 167.0 W/m2 CLR
20:14 29.6 °F 15.3 °F 1017.5 in SE 11.1 mph 11.1 mph 42 % 0.0 in 149.0 W/m2 CLR
20:20 29.4 °F 15.5 °F 1017.5 in East 14.8 mph 14.8 mph 43 % 0.0 in 134.0 W/m2 CLR
20:25 29.2 °F 15.3 °F 1017.5 in SE 13.0 mph 13.0 mph 43 % 0.0 in 120.0 W/m2 CLR
20:30 29.1 °F 15.2 °F 1017.5 in ESE 16.7 mph 16.7 mph 43 % 0.0 in 102.0 W/m2 CLR
20:35 28.9 °F 15.4 °F 1017.5 in SE 14.5 mph 14.5 mph 44 % 0.0 in 88.0 W/m2 CLR
20:40 28.8 °F 15.3 °F 1017.5 in SE 11.3 mph 11.3 mph 44 % 0.0 in 76.0 W/m2 FEW
20:45 28.7 °F 15.6 °F 1017.5 in ESE 11.1 mph 11.1 mph 45 % 0.0 in 63.0 W/m2 SCT
20:50 28.6 °F 15.4 °F 1017.5 in ESE 14.8 mph 14.8 mph 45 % 0.0 in 21.0 W/m2 BKN
20:55 28.4 °F 15.7 °F 1017.5 in SE 6.4 mph 6.4 mph 46 % 0.0 in 37.0 W/m2 BKN
21:00 28.3 °F 15.6 °F 1017.5 in East 13.0 mph 13.0 mph 46 % 0.0 in 28.0 W/m2 BKN
21:05 28.2 °F 15.8 °F 1017.5 in ESE 13.0 mph 13.0 mph 47 % 0.0 in 21.0 W/m2 BKN
21:10 28.1 °F 15.7 °F 1017.5 in ESE 9.3 mph 9.3 mph 47 % 0.0 in 14.0 W/m2 BKN
21:15 27.9 °F 15.6 °F 1017.5 in SE 11.1 mph 11.1 mph 47 % 0.0 in 12.0 W/m2 BKN
21:20 27.8 °F 15.5 °F 1017.5 in SE 9.3 mph 9.3 mph 47 % 0.0 in 11.0 W/m2 BKN
21:25 27.7 °F 15.7 °F 1017.8 in SSE 7.4 mph 7.4 mph 48 % 0.0 in 9.0 W/m2 BKN
21:30 27.6 °F 15.6 °F 1017.8 in ESE 9.3 mph 9.3 mph 48 % 0.0 in 7.0 W/m2 BKN
21:35 27.4 °F 15.4 °F 1017.8 in SSE 11.3 mph 11.3 mph 48 % 0.0 in 5.0 W/m2 OVC
21:40 27.3 °F 15.7 °F 1017.8 in SE 7.4 mph 7.4 mph 49 % 0.0 in 0.0 W/m2 OVC
21:45 27.2 °F 15.6 °F 1017.8 in SE 7.4 mph 7.4 mph 49 % 0.0 in 0.0 W/m2 OVC
21:50 27.1 °F 15.4 °F 1017.8 in Calm     49 % 0.0 in 0.0 W/m2 CLR
21:55 26.9 °F 15.6 °F 1017.8 in Calm     50 % 0.0 in 0.0 W/m2 CLR
22:00 26.7 °F 15.4 °F 1017.8 in Calm     50 % 0.0 in 0.0 W/m2 CLR
22:05 26.4 °F 15.5 °F 1017.8 in Calm     51 % 0.0 in 0.0 W/m2 CLR
22:10 26.2 °F 15.6 °F 1017.8 in Calm     52 % 0.0 in 0.0 W/m2 CLR
22:15 26.0 °F 15.7 °F 1018.2 in Calm     53 % 0.0 in 0.0 W/m2 CLR
22:20 25.8 °F 15.5 °F 1018.2 in Calm     53 % 0.0 in 0.0 W/m2 CLR
22:25 25.8 °F 15.5 °F 1018.2 in Calm     53 % 0.0 in 0.0 W/m2 CLR
22:30 25.7 °F 15.4 °F 1018.2 in Calm     53 % 0.0 in 0.0 W/m2 CLR
22:35 25.6 °F 15.3 °F 1018.2 in Calm     53 % 0.0 in 0.0 W/m2 CLR
22:40 25.4 °F 15.1 °F 1018.2 in Calm     53 % 0.0 in 0.0 W/m2 CLR
22:45 25.3 °F 15.3 °F 1018.2 in SE 5.6 mph 5.6 mph 54 % 0.0 in 0.0 W/m2 CLR
22:50 25.3 °F 15.3 °F 1018.2 in SSE 3.7 mph 3.7 mph 54 % 0.0 in 0.0 W/m2 CLR
22:55 25.3 °F 15.3 °F 1018.2 in ESE 5.6 mph 5.6 mph 54 % 0.0 in 0.0 W/m2 CLR
23:00 25.2 °F 15.3 °F 1018.2 in ESE 5.6 mph 5.6 mph 54 % 0.0 in 0.0 W/m2 CLR
23:05 25.1 °F 15.1 °F 1018.2 in ESE 9.3 mph 9.3 mph 54 % 0.0 in 0.0 W/m2 CLR
23:10 24.8 °F 15.2 °F 1018.5 in ESE 6.4 mph 6.4 mph 55 % 0.0 in 0.0 W/m2 CLR
23:15 24.7 °F 15.3 °F 1018.5 in SE 7.4 mph 7.4 mph 56 % 0.0 in 0.0 W/m2 CLR
23:20 24.6 °F 15.2 °F 1018.2 in Calm     56 % 0.0 in 0.0 W/m2 CLR
23:25 24.5 °F 15.2 °F 1018.5 in Calm     56 % 0.0 in 0.0 W/m2 CLR
23:30 24.4 °F 15.1 °F 1018.5 in Calm     56 % 0.0 in 0.0 W/m2 CLR
23:35 24.2 °F 15.2 °F 1018.5 in Calm     57 % 0.0 in 0.0 W/m2 CLR
23:40 24.1 °F 15.0 °F 1018.5 in Calm     57 % 0.0 in 0.0 W/m2 CLR
23:46 23.7 °F 14.9 °F 1018.5 in Calm     58 % 0.0 in 0.0 W/m2 CLR
23:50 23.6 °F 15.1 °F 1018.5 in Calm     59 % 0.0 in 0.0 W/m2 CLR
23:55 23.6 °F 15.1 °F 1018.5 in Calm     59 % 0.0 in 0.0 W/m2 CLR
Lo Temps de Massalio
Compliments of Weather Underground - 1.25 mb